sensor_id;sensor_type;location;lat;lon;timestamp;pressure;altitude;pressure_sealevel;temperature;humidity
59391;BME280;53405;57.012;40.984;2023-12-22T00:01:17;97926.81;;;1.15;100.00
59391;BME280;53405;57.012;40.984;2023-12-22T00:03:45;97983.06;;;1.54;100.00
59391;BME280;53405;57.012;40.984;2023-12-22T00:06:13;97995.41;;;1.52;100.00
59391;BME280;53405;57.012;40.984;2023-12-22T00:08:41;97948.94;;;1.34;100.00
59391;BME280;53405;57.012;40.984;2023-12-22T00:11:09;97985.66;;;1.54;100.00
59391;BME280;53405;57.012;40.984;2023-12-22T00:13:37;97983.34;;;1.68;100.00
59391;BME280;53405;57.012;40.984;2023-12-22T00:16:04;97976.41;;;1.60;100.00
59391;BME280;53405;57.012;40.984;2023-12-22T00:18:32;97964.22;;;1.60;100.00
59391;BME280;53405;57.012;40.984;2023-12-22T00:21:13;97960.91;;;1.43;99.76
59391;BME280;53405;57.012;40.984;2023-12-22T00:23:41;97974.78;;;1.59;100.00
59391;BME280;53405;57.012;40.984;2023-12-22T00:26:08;97967.38;;;1.48;100.00
59391;BME280;53405;57.012;40.984;2023-12-22T00:28:36;97988.75;;;1.50;100.00
59391;BME280;53405;57.012;40.984;2023-12-22T00:31:04;97974.91;;;1.66;100.00
59391;BME280;53405;57.012;40.984;2023-12-22T00:33:32;97955.19;;;1.48;99.86
59391;BME280;53405;57.012;40.984;2023-12-22T00:35:59;97954.41;;;1.48;99.51
59391;BME280;53405;57.012;40.984;2023-12-22T00:38:27;97980.66;;;1.84;98.35
59391;BME280;53405;57.012;40.984;2023-12-22T00:40:55;97934.34;;;1.33;99.33
59391;BME280;53405;57.012;40.984;2023-12-22T00:43:23;97981.66;;;1.75;97.55
59391;BME280;53405;57.012;40.984;2023-12-22T00:45:50;97978.44;;;1.73;98.53
59391;BME280;53405;57.012;40.984;2023-12-22T00:48:18;97977.66;;;2.19;95.28
59391;BME280;53405;57.012;40.984;2023-12-22T00:50:46;97953.50;;;1.63;97.90
59391;BME280;53405;57.012;40.984;2023-12-22T00:53:14;97951.41;;;1.67;97.39
59391;BME280;53405;57.012;40.984;2023-12-22T00:55:41;97973.75;;;1.68;97.15
59391;BME280;53405;57.012;40.984;2023-12-22T00:58:09;97979.56;;;1.78;98.27
59391;BME280;53405;57.012;40.984;2023-12-22T01:00:36;97977.19;;;1.92;96.65
59391;BME280;53405;57.012;40.984;2023-12-22T01:03:04;97982.72;;;1.66;97.06
59391;BME280;53405;57.012;40.984;2023-12-22T01:05:32;97980.69;;;1.76;95.85
59391;BME280;53405;57.012;40.984;2023-12-22T01:07:59;97975.03;;;1.72;97.33
59391;BME280;53405;57.012;40.984;2023-12-22T01:10:28;97974.69;;;1.75;97.25
59391;BME280;53405;57.012;40.984;2023-12-22T01:12:56;97980.41;;;1.94;94.72
59391;BME280;53405;57.012;40.984;2023-12-22T01:15:23;97980.91;;;1.66;96.11
59391;BME280;53405;57.012;40.984;2023-12-22T01:17:51;97990.44;;;1.74;97.37
59391;BME280;53405;57.012;40.984;2023-12-22T01:20:19;97993.09;;;1.66;97.64
59391;BME280;53405;57.012;40.984;2023-12-22T01:22:47;97966.78;;;1.69;97.57
59391;BME280;53405;57.012;40.984;2023-12-22T01:25:14;97980.91;;;1.97;95.08
59391;BME280;53405;57.012;40.984;2023-12-22T01:27:43;97990.50;;;1.89;96.24
59391;BME280;53405;57.012;40.984;2023-12-22T01:30:10;97986.72;;;1.68;96.15
59391;BME280;53405;57.012;40.984;2023-12-22T01:32:38;97990.72;;;1.79;97.05
59391;BME280;53405;57.012;40.984;2023-12-22T01:35:06;97989.72;;;1.88;96.14
59391;BME280;53405;57.012;40.984;2023-12-22T01:37:37;97989.72;;;1.88;95.57
59391;BME280;53405;57.012;40.984;2023-12-22T01:40:06;98001.63;;;1.74;95.69
59391;BME280;53405;57.012;40.984;2023-12-22T01:42:34;97996.38;;;1.51;96.78
59391;BME280;53405;57.012;40.984;2023-12-22T01:45:02;97941.34;;;1.33;96.50
59391;BME280;53405;57.012;40.984;2023-12-22T01:47:30;97990.84;;;1.62;97.27
59391;BME280;53405;57.012;40.984;2023-12-22T01:49:58;98000.34;;;1.70;96.86
59391;BME280;53405;57.012;40.984;2023-12-22T01:52:30;97991.13;;;1.68;96.46
59391;BME280;53405;57.012;40.984;2023-12-22T01:54:58;97979.44;;;1.63;96.20
59391;BME280;53405;57.012;40.984;2023-12-22T01:57:25;97986.72;;;1.68;96.50
59391;BME280;53405;57.012;40.984;2023-12-22T01:59:53;97992.03;;;1.83;96.12
59391;BME280;53405;57.012;40.984;2023-12-22T02:02:22;97991.34;;;1.89;95.58
59391;BME280;53405;57.012;40.984;2023-12-22T02:04:49;97986.19;;;1.81;95.51
59391;BME280;53405;57.012;40.984;2023-12-22T02:07:17;98001.53;;;1.59;96.90
59391;BME280;53405;57.012;40.984;2023-12-22T02:09:45;97986.56;;;1.70;96.78
59391;BME280;53405;57.012;40.984;2023-12-22T02:12:12;97993.09;;;1.66;97.35
59391;BME280;53405;57.012;40.984;2023-12-22T02:14:40;98007.16;;;1.71;97.78
59391;BME280;53405;57.012;40.984;2023-12-22T02:17:25;98002.75;;;1.72;97.01
59391;BME280;53405;57.012;40.984;2023-12-22T02:19:54;98002.69;;;1.88;96.81
59391;BME280;53405;57.012;40.984;2023-12-22T02:22:23;97990.34;;;1.59;96.73
59391;BME280;53405;57.012;40.984;2023-12-22T02:24:51;97997.63;;;1.63;96.86
59391;BME280;53405;57.012;40.984;2023-12-22T02:27:33;98007.66;;;1.67;96.84
59391;BME280;53405;57.012;40.984;2023-12-22T02:33:00;97979.66;;;1.54;96.83
59391;BME280;53405;57.012;40.984;2023-12-22T02:35:29;98001.22;;;1.54;96.93
59391;BME280;53405;57.012;40.984;2023-12-22T02:37:59;98020.94;;;1.72;96.15
59391;BME280;53405;57.012;40.984;2023-12-22T02:40:37;98010.09;;;1.68;96.89
59391;BME280;53405;57.012;40.984;2023-12-22T02:43:05;98016.78;;;1.62;96.44
59391;BME280;53405;57.012;40.984;2023-12-22T02:45:34;98017.53;;;1.71;95.85
59391;BME280;53405;57.012;40.984;2023-12-22T02:48:02;98019.72;;;1.51;96.40
59391;BME280;53405;57.012;40.984;2023-12-22T02:50:30;98017.56;;;1.63;96.94
59391;BME280;53405;57.012;40.984;2023-12-22T02:52:57;98007.69;;;1.58;96.82
59391;BME280;53405;57.012;40.984;2023-12-22T02:55:25;98031.47;;;1.70;95.52
59391;BME280;53405;57.012;40.984;2023-12-22T02:57:53;98026.06;;;1.49;96.07
59391;BME280;53405;57.012;40.984;2023-12-22T03:00:21;98029.16;;;1.84;96.43
59391;BME280;53405;57.012;40.984;2023-12-22T03:02:48;97997.03;;;1.53;95.65
59391;BME280;53405;57.012;40.984;2023-12-22T03:05:16;98021.41;;;1.75;95.96
59391;BME280;53405;57.012;40.984;2023-12-22T03:07:44;98013.25;;;1.87;94.95
59391;BME280;53405;57.012;40.984;2023-12-22T03:10:12;98004.69;;;1.78;93.48
59391;BME280;53405;57.012;40.984;2023-12-22T03:12:39;98026.63;;;1.75;93.88
59391;BME280;53405;57.012;40.984;2023-12-22T03:15:07;98033.22;;;1.86;94.04
59391;BME280;53405;57.012;40.984;2023-12-22T03:17:35;98020.41;;;1.76;94.11
59391;BME280;53405;57.012;40.984;2023-12-22T03:20:03;98032.72;;;1.83;93.12
59391;BME280;53405;57.012;40.984;2023-12-22T03:22:31;98007.06;;;1.48;92.81
59391;BME280;53405;57.012;40.984;2023-12-22T03:24:59;98042.47;;;1.80;92.80
59391;BME280;53405;57.012;40.984;2023-12-22T03:27:31;98044.00;;;1.67;94.05
59391;BME280;53405;57.012;40.984;2023-12-22T03:30:00;98047.25;;;1.60;93.51
59391;BME280;53405;57.012;40.984;2023-12-22T03:32:33;98037.16;;;1.74;94.07
59391;BME280;53405;57.012;40.984;2023-12-22T03:35:01;98026.63;;;1.75;92.68
59391;BME280;53405;57.012;40.984;2023-12-22T03:37:31;98030.34;;;1.73;93.81
59391;BME280;53405;57.012;40.984;2023-12-22T03:39:59;97995.88;;;1.56;92.75
59391;BME280;53405;57.012;40.984;2023-12-22T03:42:30;98024.78;;;1.84;92.11
59391;BME280;53405;57.012;40.984;2023-12-22T03:44:58;98024.81;;;1.76;91.59
59391;BME280;53405;57.012;40.984;2023-12-22T03:47:25;98035.66;;;1.79;92.06
59391;BME280;53405;57.012;40.984;2023-12-22T03:49:53;98038.81;;;1.67;93.21
59391;BME280;53405;57.012;40.984;2023-12-22T03:52:21;98035.91;;;1.61;94.00
59391;BME280;53405;57.012;40.984;2023-12-22T03:54:48;98032.53;;;1.53;94.10
59391;BME280;53405;57.012;40.984;2023-12-22T03:57:18;97993.72;;;1.28;94.36
59391;BME280;53405;57.012;40.984;2023-12-22T03:59:45;98028.69;;;1.40;94.74
59391;BME280;53405;57.012;40.984;2023-12-22T04:02:13;98020.13;;;1.32;95.47
59391;BME280;53405;57.012;40.984;2023-12-22T04:04:41;98021.06;;;1.31;95.50
59391;BME280;53405;57.012;40.984;2023-12-22T04:07:09;98032.13;;;1.24;96.55
59391;BME280;53405;57.012;40.984;2023-12-22T04:09:37;98016.25;;;1.19;96.89
59391;BME280;53405;57.012;40.984;2023-12-22T04:12:08;98027.91;;;1.23;95.75
59391;BME280;53405;57.012;40.984;2023-12-22T04:14:35;98004.13;;;1.12;96.09
59391;BME280;53405;57.012;40.984;2023-12-22T04:17:03;98027.28;;;1.13;96.51
59391;BME280;53405;57.012;40.984;2023-12-22T04:19:31;98035.53;;;1.25;96.71
59391;BME280;53405;57.012;40.984;2023-12-22T04:21:59;98023.41;;;1.17;97.14
59391;BME280;53405;57.012;40.984;2023-12-22T04:24:27;98002.34;;;1.04;97.57
59391;BME280;53405;57.012;40.984;2023-12-22T04:26:55;98028.38;;;1.27;97.71
59391;BME280;53405;57.012;40.984;2023-12-22T04:29:23;98028.56;;;1.25;97.44
59391;BME280;53405;57.012;40.984;2023-12-22T04:31:53;98020.13;;;1.32;97.89
59391;BME280;53405;57.012;40.984;2023-12-22T04:34:21;98022.38;;;1.35;97.03
59391;BME280;53405;57.012;40.984;2023-12-22T04:36:49;98000.84;;;1.18;95.87
59391;BME280;53405;57.012;40.984;2023-12-22T04:39:16;98032.75;;;1.35;96.56
59391;BME280;53405;57.012;40.984;2023-12-22T04:41:44;98024.84;;;1.28;96.87
59391;BME280;53405;57.012;40.984;2023-12-22T04:44:12;98026.25;;;1.31;97.01
59391;BME280;53405;57.012;40.984;2023-12-22T04:46:40;98029.53;;;1.16;96.54
59391;BME280;53405;57.012;40.984;2023-12-22T04:49:08;97991.19;;;1.03;97.32
59391;BME280;53405;57.012;40.984;2023-12-22T04:51:35;98036.81;;;1.29;97.20
59391;BME280;53405;57.012;40.984;2023-12-22T04:54:03;98028.19;;;1.37;97.50
59391;BME280;53405;57.012;40.984;2023-12-22T04:56:34;98018.38;;;1.16;97.11
59391;BME280;53405;57.012;40.984;2023-12-22T04:59:01;98034.38;;;1.27;97.65
59391;BME280;53405;57.012;40.984;2023-12-22T05:01:29;98009.47;;;1.02;97.61
59391;BME280;53405;57.012;40.984;2023-12-22T05:03:57;98037.00;;;1.19;97.63
59391;BME280;53405;57.012;40.984;2023-12-22T05:06:24;98034.25;;;1.13;98.83
59391;BME280;53405;57.012;40.984;2023-12-22T05:08:52;98031.47;;;1.22;99.28
59391;BME280;53405;57.012;40.984;2023-12-22T05:11:20;98039.91;;;1.24;99.77
59391;BME280;53405;57.012;40.984;2023-12-22T05:13:48;98054.13;;;1.37;97.61
59391;BME280;53405;57.012;40.984;2023-12-22T05:16:16;98056.22;;;1.41;99.22
59391;BME280;53405;57.012;40.984;2023-12-22T05:18:43;98053.16;;;1.38;97.26
59391;BME280;53405;57.012;40.984;2023-12-22T05:21:14;98036.47;;;1.32;98.15
59391;BME280;53405;57.012;40.984;2023-12-22T05:23:43;98047.34;;;1.36;98.48
59391;BME280;53405;57.012;40.984;2023-12-22T05:26:16;98047.50;;;1.26;97.96
59391;BME280;53405;57.012;40.984;2023-12-22T05:28:44;98049.28;;;1.34;99.57
59391;BME280;53405;57.012;40.984;2023-12-22T05:31:12;98066.00;;;1.31;97.77
59391;BME280;53405;57.012;40.984;2023-12-22T05:33:40;98054.13;;;1.37;97.79
59391;BME280;53405;57.012;40.984;2023-12-22T05:36:08;98041.19;;;1.29;96.26
59391;BME280;53405;57.012;40.984;2023-12-22T05:38:40;98056.28;;;1.25;97.24
59391;BME280;53405;57.012;40.984;2023-12-22T05:41:08;98044.75;;;1.27;98.39
59391;BME280;53405;57.012;40.984;2023-12-22T05:43:35;98040.41;;;1.28;96.24
59391;BME280;53405;57.012;40.984;2023-12-22T05:46:03;98052.84;;;1.24;96.26
59391;BME280;53405;57.012;40.984;2023-12-22T05:48:31;98052.38;;;1.29;96.22
59391;BME280;53405;57.012;40.984;2023-12-22T05:51:01;98053.81;;;1.32;95.66
59391;BME280;53405;57.012;40.984;2023-12-22T05:53:31;98052.38;;;1.37;96.95
59391;BME280;53405;57.012;40.984;2023-12-22T05:55:59;98048.53;;;1.17;96.17
59391;BME280;53405;57.012;40.984;2023-12-22T05:58:27;98011.59;;;1.06;96.70
59391;BME280;53405;57.012;40.984;2023-12-22T06:00:55;98052.38;;;1.21;95.65
59391;BME280;53405;57.012;40.984;2023-12-22T06:03:22;98049.13;;;1.35;96.52
59391;BME280;53405;57.012;40.984;2023-12-22T06:05:50;98028.22;;;1.29;95.90
59391;BME280;53405;57.012;40.984;2023-12-22T06:08:18;98068.81;;;1.69;94.95
59391;BME280;53405;57.012;40.984;2023-12-22T06:10:48;98061.22;;;1.59;93.80
59391;BME280;53405;57.012;40.984;2023-12-22T06:13:16;98069.38;;;1.40;92.80
59391;BME280;53405;57.012;40.984;2023-12-22T06:15:44;98072.28;;;1.37;93.66
59391;BME280;53405;57.012;40.984;2023-12-22T06:18:11;98079.44;;;1.35;92.62
59391;BME280;53405;57.012;40.984;2023-12-22T06:20:39;98077.78;;;1.50;93.56
59391;BME280;53405;57.012;40.984;2023-12-22T06:23:07;98073.13;;;1.37;93.16
59391;BME280;53405;57.012;40.984;2023-12-22T06:25:45;98083.59;;;1.52;92.33
59391;BME280;53405;57.012;40.984;2023-12-22T06:28:14;98054.97;;;1.29;92.82
59391;BME280;53405;57.012;40.984;2023-12-22T06:30:44;98084.09;;;1.48;93.05
59391;BME280;53405;57.012;40.984;2023-12-22T06:33:14;98080.22;;;1.35;92.72
59391;BME280;53405;57.012;40.984;2023-12-22T06:35:41;98075.72;;;1.29;92.92
59391;BME280;53405;57.012;40.984;2023-12-22T06:38:09;98090.94;;;1.40;92.48
59391;BME280;53405;57.012;40.984;2023-12-22T06:40:38;98072.63;;;1.34;93.91
59391;BME280;53405;57.012;40.984;2023-12-22T06:43:06;98082.84;;;1.43;93.02
59391;BME280;53405;57.012;40.984;2023-12-22T06:45:33;98082.81;;;1.52;91.72
59391;BME280;53405;57.012;40.984;2023-12-22T06:48:01;98084.44;;;1.44;91.54
59391;BME280;53405;57.012;40.984;2023-12-22T06:50:29;98073.06;;;1.54;91.48
59391;BME280;53405;57.012;40.984;2023-12-22T06:52:56;98073.38;;;1.59;89.72
59391;BME280;53405;57.012;40.984;2023-12-22T06:55:32;98077.78;;;1.50;89.32
59391;BME280;53405;57.012;40.984;2023-12-22T06:58:00;98083.97;;;1.41;88.58
59391;BME280;53405;57.012;40.984;2023-12-22T07:00:27;98086.25;;;1.27;90.13
59391;BME280;53405;57.012;40.984;2023-12-22T07:02:55;98083.78;;;1.51;89.91
59391;BME280;53405;57.012;40.984;2023-12-22T07:07:51;98093.50;;;1.49;89.18
59391;BME280;53405;57.012;40.984;2023-12-22T07:10:19;98084.88;;;1.65;86.88
59391;BME280;53405;57.012;40.984;2023-12-22T07:12:47;98089.56;;;1.69;87.88
59391;BME280;53405;57.012;40.984;2023-12-22T07:15:14;98095.13;;;1.50;88.27
59391;BME280;53405;57.012;40.984;2023-12-22T07:17:42;98075.19;;;1.50;89.75
59391;BME280;53405;57.012;40.984;2023-12-22T07:20:10;98092.84;;;1.47;88.95
59391;BME280;53405;57.012;40.984;2023-12-22T07:22:38;98086.41;;;1.34;90.20
59391;BME280;53405;57.012;40.984;2023-12-22T07:25:06;98087.66;;;1.47;91.15
59391;BME280;53405;57.012;40.984;2023-12-22T07:27:35;98091.13;;;1.39;90.57
59391;BME280;53405;57.012;40.984;2023-12-22T07:30:03;98085.94;;;1.39;91.26
59391;BME280;53405;57.012;40.984;2023-12-22T07:32:33;98086.56;;;1.41;91.39
59391;BME280;53405;57.012;40.984;2023-12-22T07:35:01;98090.75;;;1.50;89.10
59391;BME280;53405;57.012;40.984;2023-12-22T07:37:30;98084.75;;;1.58;89.74
59391;BME280;53405;57.012;40.984;2023-12-22T07:39:58;98094.13;;;1.59;89.50
59391;BME280;53405;57.012;40.984;2023-12-22T07:42:25;98095.72;;;1.68;88.96
59391;BME280;53405;57.012;40.984;2023-12-22T07:44:55;98090.25;;;1.47;89.24
59391;BME280;53405;57.012;40.984;2023-12-22T07:47:22;98088.97;;;1.51;87.32
59391;BME280;53405;57.012;40.984;2023-12-22T07:49:50;98083.81;;;1.34;89.54
59391;BME280;53405;57.012;40.984;2023-12-22T07:52:18;98082.81;;;1.35;88.80
59391;BME280;53405;57.012;40.984;2023-12-22T07:54:46;98033.94;;;1.16;90.14
59391;BME280;53405;57.012;40.984;2023-12-22T07:57:15;98074.53;;;1.48;89.14
59391;BME280;53405;57.012;40.984;2023-12-22T07:59:43;98073.44;;;1.26;89.69
59391;BME280;53405;57.012;40.984;2023-12-22T08:02:10;98081.38;;;1.41;88.85
59391;BME280;53405;57.012;40.984;2023-12-22T08:04:39;98075.72;;;1.29;90.01
59391;BME280;53405;57.012;40.984;2023-12-22T08:07:07;98078.78;;;1.41;91.42
59391;BME280;53405;57.012;40.984;2023-12-22T08:09:36;98089.75;;;1.59;91.64
59391;BME280;53405;57.012;40.984;2023-12-22T08:12:03;98086.22;;;1.44;89.30
59391;BME280;53405;57.012;40.984;2023-12-22T08:14:32;98077.81;;;1.42;91.03
59391;BME280;53405;57.012;40.984;2023-12-22T08:16:59;98079.56;;;1.41;88.49
59391;BME280;53405;57.012;40.984;2023-12-22T08:19:27;98074.38;;;1.50;91.53
59391;BME280;53405;57.012;40.984;2023-12-22T08:21:58;98072.94;;;1.47;91.01
59391;BME280;53405;57.012;40.984;2023-12-22T08:24:30;98060.59;;;1.49;89.97
59391;BME280;53405;57.012;40.984;2023-12-22T08:26:58;98053.47;;;1.43;90.76
59391;BME280;53405;57.012;40.984;2023-12-22T08:29:25;98066.91;;;1.47;90.46
59391;BME280;53405;57.012;40.984;2023-12-22T08:31:53;98051.88;;;1.34;89.25
59391;BME280;53405;57.012;40.984;2023-12-22T08:34:21;98063.34;;;1.48;91.30
59391;BME280;53405;57.012;40.984;2023-12-22T08:36:49;98049.25;;;1.50;90.52
59391;BME280;53405;57.012;40.984;2023-12-22T08:39:17;98045.31;;;1.54;90.85
59391;BME280;53405;57.012;40.984;2023-12-22T08:41:45;98039.81;;;1.57;91.13
59391;BME280;53405;57.012;40.984;2023-12-22T08:44:14;98036.38;;;1.65;89.29
59391;BME280;53405;57.012;40.984;2023-12-22T08:46:44;98020.09;;;1.40;88.87
59391;BME280;53405;57.012;40.984;2023-12-22T08:49:12;98031.75;;;1.44;89.59
59391;BME280;53405;57.012;40.984;2023-12-22T08:51:41;98037.69;;;1.61;90.52
59391;BME280;53405;57.012;40.984;2023-12-22T08:54:10;98036.19;;;1.67;88.57
59391;BME280;53405;57.012;40.984;2023-12-22T08:56:38;98039.34;;;1.54;89.82
59391;BME280;53405;57.012;40.984;2023-12-22T08:59:06;98047.44;;;1.51;88.91
59391;BME280;53405;57.012;40.984;2023-12-22T09:01:36;98042.28;;;1.42;91.02
59391;BME280;53405;57.012;40.984;2023-12-22T09:04:04;98037.88;;;1.59;92.01
59391;BME280;53405;57.012;40.984;2023-12-22T09:06:34;98035.28;;;1.51;89.95
59391;BME280;53405;57.012;40.984;2023-12-22T09:09:01;98038.50;;;1.61;90.21
59391;BME280;53405;57.012;40.984;2023-12-22T09:11:30;98035.75;;;1.63;91.18
59391;BME280;53405;57.012;40.984;2023-12-22T09:13:58;98032.47;;;1.69;90.03
59391;BME280;53405;57.012;40.984;2023-12-22T09:16:25;98024.00;;;1.75;90.95
59391;BME280;53405;57.012;40.984;2023-12-22T09:18:53;98022.31;;;1.59;88.98
59391;BME280;53405;57.012;40.984;2023-12-22T09:21:22;98018.50;;;1.78;89.06
59391;BME280;53405;57.012;40.984;2023-12-22T09:23:49;98010.88;;;1.77;89.18
59391;BME280;53405;57.012;40.984;2023-12-22T09:26:17;97996.09;;;1.77;90.79
59391;BME280;53405;57.012;40.984;2023-12-22T09:28:45;98009.47;;;1.97;88.64
59391;BME280;53405;57.012;40.984;2023-12-22T09:31:13;97999.53;;;2.01;89.33
59391;BME280;53405;57.012;40.984;2023-12-22T09:33:41;97996.00;;;1.94;88.90
59391;BME280;53405;57.012;40.984;2023-12-22T09:36:10;98013.31;;;2.02;89.98
59391;BME280;53405;57.012;40.984;2023-12-22T09:38:38;97994.78;;;1.82;89.66
59391;BME280;53405;57.012;40.984;2023-12-22T09:41:05;98012.22;;;1.96;91.31
59391;BME280;53405;57.012;40.984;2023-12-22T09:43:35;97896.75;;;1.29;88.77
59391;BME280;53405;57.012;40.984;2023-12-22T09:46:04;98006.69;;;1.99;89.68
59391;BME280;53405;57.012;40.984;2023-12-22T09:48:33;97905.75;;;1.18;88.97
59391;BME280;53405;57.012;40.984;2023-12-22T09:51:05;97999.06;;;1.66;90.68
59391;BME280;53405;57.012;40.984;2023-12-22T09:53:33;97980.91;;;1.66;90.41
59391;BME280;53405;57.012;40.984;2023-12-22T09:56:03;97972.16;;;1.59;88.52
59391;BME280;53405;57.012;40.984;2023-12-22T09:58:33;98011.00;;;1.84;89.70
59391;BME280;53405;57.012;40.984;2023-12-22T10:01:04;98004.25;;;1.66;90.42
59391;BME280;53405;57.012;40.984;2023-12-22T10:03:33;98003.63;;;1.64;91.31
59391;BME280;53405;57.012;40.984;2023-12-22T10:06:03;98005.16;;;1.82;91.76
59391;BME280;53405;57.012;40.984;2023-12-22T10:08:32;98015.06;;;1.78;89.22
59391;BME280;53405;57.012;40.984;2023-12-22T10:11:01;98026.28;;;1.78;90.44
59391;BME280;53405;57.012;40.984;2023-12-22T10:13:29;98037.78;;;1.76;90.54
59391;BME280;53405;57.012;40.984;2023-12-22T10:15:59;98018.50;;;1.70;90.90
59391;BME280;53405;57.012;40.984;2023-12-22T10:18:28;98020.56;;;1.83;89.22
59391;BME280;53405;57.012;40.984;2023-12-22T10:20:56;98011.09;;;1.67;89.35
59391;BME280;53405;57.012;40.984;2023-12-22T10:23:24;98008.78;;;1.72;89.88
59391;BME280;53405;57.012;40.984;2023-12-22T10:25:52;97998.41;;;1.72;89.10
59391;BME280;53405;57.012;40.984;2023-12-22T10:28:20;97996.59;;;1.73;88.62
59391;BME280;53405;57.012;40.984;2023-12-22T10:30:53;98005.50;;;1.78;88.96
59391;BME280;53405;57.012;40.984;2023-12-22T10:33:21;98010.72;;;1.70;89.96
59391;BME280;53405;57.012;40.984;2023-12-22T10:35:49;98013.13;;;1.72;90.24
59391;BME280;53405;57.012;40.984;2023-12-22T10:38:19;98006.69;;;1.68;91.09
59391;BME280;53405;57.012;40.984;2023-12-22T10:40:47;97943.25;;;1.39;90.41
59391;BME280;53405;57.012;40.984;2023-12-22T10:43:14;98012.13;;;1.81;88.81
59391;BME280;53405;57.012;40.984;2023-12-22T10:45:42;97994.91;;;1.57;88.47
59391;BME280;53405;57.012;40.984;2023-12-22T10:48:10;97991.50;;;1.56;89.29
59391;BME280;53405;57.012;40.984;2023-12-22T10:50:39;98004.56;;;1.71;90.21
59391;BME280;53405;57.012;40.984;2023-12-22T10:53:10;98015.56;;;1.73;89.57
59391;BME280;53405;57.012;40.984;2023-12-22T10:55:38;98016.91;;;1.69;89.85
59391;BME280;53405;57.012;40.984;2023-12-22T10:58:06;97993.41;;;1.62;90.08
59391;BME280;53405;57.012;40.984;2023-12-22T11:00:37;98020.75;;;1.82;90.76
59391;BME280;53405;57.012;40.984;2023-12-22T11:03:07;97992.38;;;1.80;90.43
59391;BME280;53405;57.012;40.984;2023-12-22T11:05:44;98022.38;;;1.74;90.05
59391;BME280;53405;57.012;40.984;2023-12-22T11:08:12;98019.16;;;1.72;90.05
59391;BME280;53405;57.012;40.984;2023-12-22T11:10:42;98016.81;;;1.86;90.17
59391;BME280;53405;57.012;40.984;2023-12-22T11:13:12;98019.28;;;1.79;89.31
59391;BME280;53405;57.012;40.984;2023-12-22T11:15:40;98005.69;;;1.69;89.91
59391;BME280;53405;57.012;40.984;2023-12-22T11:18:09;98011.94;;;1.91;90.28
59391;BME280;53405;57.012;40.984;2023-12-22T11:20:38;98010.38;;;1.73;89.49
59391;BME280;53405;57.012;40.984;2023-12-22T11:23:08;98022.38;;;1.74;90.64
59391;BME280;53405;57.012;40.984;2023-12-22T11:25:37;98025.09;;;1.89;88.92
59391;BME280;53405;57.012;40.984;2023-12-22T11:28:06;98024.31;;;1.80;88.73
59391;BME280;53405;57.012;40.984;2023-12-22T11:30:34;98026.28;;;1.78;89.38
59391;BME280;53405;57.012;40.984;2023-12-22T11:33:04;97993.78;;;1.51;90.54
59391;BME280;53405;57.012;40.984;2023-12-22T11:35:33;98028.53;;;1.73;88.11
59391;BME280;53405;57.012;40.984;2023-12-22T11:38:02;98032.00;;;1.66;89.75
59391;BME280;53405;57.012;40.984;2023-12-22T11:40:31;98035.41;;;1.66;90.96
59391;BME280;53405;57.012;40.984;2023-12-22T11:43:00;97995.91;;;1.48;89.00
59391;BME280;53405;57.012;40.984;2023-12-22T11:45:32;97991.84;;;1.45;90.48
59391;BME280;53405;57.012;40.984;2023-12-22T11:48:08;98018.38;;;1.63;90.80
59391;BME280;53405;57.012;40.984;2023-12-22T11:50:37;98008.00;;;1.63;91.48
59391;BME280;53405;57.012;40.984;2023-12-22T11:53:23;98026.28;;;1.70;90.50
59391;BME280;53405;57.012;40.984;2023-12-22T11:56:04;98027.16;;;1.62;89.85
59391;BME280;53405;57.012;40.984;2023-12-22T11:58:59;98033.16;;;1.63;89.67
59391;BME280;53405;57.012;40.984;2023-12-22T12:01:29;98035.16;;;1.44;89.47
59391;BME280;53405;57.012;40.984;2023-12-22T12:04:03;98040.84;;;1.40;90.59
59391;BME280;53405;57.012;40.984;2023-12-22T12:06:33;98036.75;;;1.54;92.52
59391;BME280;53405;57.012;40.984;2023-12-22T12:09:05;98045.41;;;1.77;92.33
59391;BME280;53405;57.012;40.984;2023-12-22T12:14:22;98028.81;;;1.47;88.20
59391;BME280;53405;57.012;40.984;2023-12-22T12:16:50;98047.13;;;1.54;88.91
59391;BME280;53405;57.012;40.984;2023-12-22T12:19:22;98026.25;;;1.39;89.39
59391;BME280;53405;57.012;40.984;2023-12-22T12:21:50;98050.00;;;1.59;90.51
59391;BME280;53405;57.012;40.984;2023-12-22T12:24:18;98040.78;;;1.56;90.31
59391;BME280;53405;57.012;40.984;2023-12-22T12:26:45;98049.69;;;1.62;90.23
59391;BME280;53405;57.012;40.984;2023-12-22T12:29:13;98028.75;;;1.63;90.22
59391;BME280;53405;57.012;40.984;2023-12-22T12:31:41;98043.56;;;1.55;90.18
59391;BME280;53405;57.012;40.984;2023-12-22T12:34:10;98042.75;;;1.46;90.29
59391;BME280;53405;57.012;40.984;2023-12-22T12:36:39;98006.69;;;1.28;89.29
59391;BME280;53405;57.012;40.984;2023-12-22T12:39:08;98042.56;;;1.56;90.60
59391;BME280;53405;57.012;40.984;2023-12-22T12:41:40;98035.44;;;1.50;89.45
59391;BME280;53405;57.012;40.984;2023-12-22T12:44:08;98022.22;;;1.36;90.14
59391;BME280;53405;57.012;40.984;2023-12-22T12:46:39;98040.16;;;1.46;89.21
59391;BME280;53405;57.012;40.984;2023-12-22T12:49:09;98019.28;;;1.39;90.29
59391;BME280;53405;57.012;40.984;2023-12-22T12:51:41;98016.56;;;1.33;91.23
59391;BME280;53405;57.012;40.984;2023-12-22T12:54:10;98032.19;;;1.56;91.20
59391;BME280;53405;57.012;40.984;2023-12-22T12:56:44;97990.28;;;1.27;90.35
59391;BME280;53405;57.012;40.984;2023-12-22T12:59:13;98032.34;;;1.62;90.08
59391;BME280;53405;57.012;40.984;2023-12-22T13:01:43;98032.88;;;1.41;89.99
59391;BME280;53405;57.012;40.984;2023-12-22T13:04:12;98037.09;;;1.42;91.21
59391;BME280;53405;57.012;40.984;2023-12-22T13:06:48;98036.63;;;1.31;89.04
59391;BME280;53405;57.012;40.984;2023-12-22T13:09:17;98019.50;;;1.13;90.22
59391;BME280;53405;57.012;40.984;2023-12-22T13:11:46;98022.03;;;1.38;91.99
59391;BME280;53405;57.012;40.984;2023-12-22T13:14:24;98015.72;;;1.32;91.22
59391;BME280;53405;57.012;40.984;2023-12-22T13:16:55;98011.50;;;1.39;91.33